<?xml version="1.0" encoding="UTF-8" standalone="no" ?>
<gpx xmlns="http://www.topografix.com/GPX/1/1" xmlns:xsi="http://www.w3.org/2001/XMLSchema-instance" xsi:schemaLocation="http://www.topografix.com/GPX/1/1 http://www.topografix.com/GPX/1/1/gpx.xsd" version="1.1" creator="VisuGPX - https://www.visugpx.com">
  <metadata>
    <name>Boundalou et grotte</name>
    <desc><![CDATA[Randonnée au départ de Raujolles]]></desc>
  </metadata>
  <trk>
    <name><![CDATA[boundalou]]></name>
    <trkseg>
      <trkpt lat="44.07551" lon="3.04803">
        <ele>377</ele>
        <time>2012-09-06T11:47:20Z</time>
      </trkpt>
      <trkpt lat="44.07548" lon="3.04809">
        <ele>378</ele>
        <time>2012-09-06T11:47:37Z</time>
      </trkpt>
      <trkpt lat="44.07548" lon="3.04809">
        <ele>378</ele>
        <time>2012-09-06T11:47:39Z</time>
      </trkpt>
      <trkpt lat="44.07546" lon="3.04813">
        <ele>379</ele>
        <time>2012-09-06T11:47:51Z</time>
      </trkpt>
      <trkpt lat="44.07512" lon="3.04767">
        <ele>387</ele>
        <time>2012-09-06T11:49:41Z</time>
      </trkpt>
      <trkpt lat="44.07477" lon="3.04727">
        <ele>384</ele>
        <time>2012-09-06T11:50:19Z</time>
      </trkpt>
      <trkpt lat="44.07431" lon="3.04732">
        <ele>391</ele>
        <time>2012-09-06T11:50:53Z</time>
      </trkpt>
      <trkpt lat="44.07389" lon="3.04756">
        <ele>398</ele>
        <time>2012-09-06T11:51:32Z</time>
      </trkpt>
      <trkpt lat="44.07347" lon="3.04734">
        <ele>412</ele>
        <time>2012-09-06T11:54:05Z</time>
      </trkpt>
      <trkpt lat="44.07301" lon="3.0474">
        <ele>424</ele>
        <time>2012-09-06T11:54:57Z</time>
      </trkpt>
      <trkpt lat="44.07292" lon="3.04677">
        <ele>425</ele>
        <time>2012-09-06T11:56:27Z</time>
      </trkpt>
      <trkpt lat="44.07295" lon="3.04615">
        <ele>429</ele>
        <time>2012-09-06T11:57:25Z</time>
      </trkpt>
      <trkpt lat="44.07318" lon="3.0456">
        <ele>435</ele>
        <time>2012-09-06T11:58:13Z</time>
      </trkpt>
      <trkpt lat="44.07274" lon="3.04574">
        <ele>449</ele>
        <time>2012-09-06T11:59:37Z</time>
      </trkpt>
      <trkpt lat="44.07295" lon="3.04518">
        <ele>454</ele>
        <time>2012-09-06T12:01:09Z</time>
      </trkpt>
      <trkpt lat="44.07319" lon="3.04466">
        <ele>460</ele>
        <time>2012-09-06T12:02:01Z</time>
      </trkpt>
      <trkpt lat="44.07276" lon="3.04485">
        <ele>468</ele>
        <time>2012-09-06T12:03:10Z</time>
      </trkpt>
      <trkpt lat="44.07234" lon="3.04509">
        <ele>473</ele>
        <time>2012-09-06T12:03:58Z</time>
      </trkpt>
      <trkpt lat="44.07248" lon="3.04448">
        <ele>485</ele>
        <time>2012-09-06T12:05:48Z</time>
      </trkpt>
      <trkpt lat="44.07254" lon="3.04385">
        <ele>486</ele>
        <time>2012-09-06T12:06:40Z</time>
      </trkpt>
      <trkpt lat="44.07274" lon="3.04328">
        <ele>494</ele>
        <time>2012-09-06T12:10:59Z</time>
      </trkpt>
      <trkpt lat="44.07286" lon="3.04266">
        <ele>495</ele>
        <time>2012-09-06T12:11:44Z</time>
      </trkpt>
      <trkpt lat="44.073" lon="3.04206">
        <ele>506</ele>
        <time>2012-09-06T12:12:56Z</time>
      </trkpt>
      <trkpt lat="44.07319" lon="3.04149">
        <ele>514</ele>
        <time>2012-09-06T12:14:20Z</time>
      </trkpt>
      <trkpt lat="44.07335" lon="3.04089">
        <ele>516</ele>
        <time>2012-09-06T12:15:24Z</time>
      </trkpt>
      <trkpt lat="44.07317" lon="3.04031">
        <ele>517</ele>
        <time>2012-09-06T12:16:38Z</time>
      </trkpt>
      <trkpt lat="44.0729" lon="3.04082">
        <ele>529</ele>
        <time>2012-09-06T12:18:03Z</time>
      </trkpt>
      <trkpt lat="44.07253" lon="3.04119">
        <ele>536</ele>
        <time>2012-09-06T12:18:46Z</time>
      </trkpt>
      <trkpt lat="44.07218" lon="3.04159">
        <ele>548</ele>
        <time>2012-09-06T12:20:07Z</time>
      </trkpt>
      <trkpt lat="44.07176" lon="3.0418">
        <ele>563</ele>
        <time>2012-09-06T12:21:11Z</time>
      </trkpt>
      <trkpt lat="44.07133" lon="3.04201">
        <ele>579</ele>
        <time>2012-09-06T12:23:49Z</time>
      </trkpt>
      <trkpt lat="44.07088" lon="3.04215">
        <ele>585</ele>
        <time>2012-09-06T12:26:19Z</time>
      </trkpt>
      <trkpt lat="44.07044" lon="3.04228">
        <ele>597</ele>
        <time>2012-09-06T12:27:24Z</time>
      </trkpt>
      <trkpt lat="44.07003" lon="3.04257">
        <ele>601</ele>
        <time>2012-09-06T12:28:26Z</time>
      </trkpt>
      <trkpt lat="44.06959" lon="3.04273">
        <ele>609</ele>
        <time>2012-09-06T12:29:21Z</time>
      </trkpt>
      <trkpt lat="44.06917" lon="3.0425">
        <ele>620</ele>
        <time>2012-09-06T12:31:29Z</time>
      </trkpt>
      <trkpt lat="44.06871" lon="3.04251">
        <ele>628</ele>
        <time>2012-09-06T12:33:52Z</time>
      </trkpt>
      <trkpt lat="44.06827" lon="3.04241">
        <ele>623</ele>
        <time>2012-09-06T12:36:19Z</time>
      </trkpt>
      <trkpt lat="44.06785" lon="3.04268">
        <ele>617</ele>
        <time>2012-09-06T12:37:05Z</time>
      </trkpt>
      <trkpt lat="44.06742" lon="3.0429">
        <ele>619</ele>
        <time>2012-09-06T12:37:53Z</time>
      </trkpt>
      <trkpt lat="44.06697" lon="3.04302">
        <ele>629</ele>
        <time>2012-09-06T12:38:52Z</time>
      </trkpt>
      <trkpt lat="44.06658" lon="3.04333">
        <ele>640</ele>
        <time>2012-09-06T12:39:43Z</time>
      </trkpt>
      <trkpt lat="44.06615" lon="3.0431">
        <ele>646</ele>
        <time>2012-09-06T12:40:34Z</time>
      </trkpt>
      <trkpt lat="44.06569" lon="3.04317">
        <ele>651</ele>
        <time>2012-09-06T12:45:47Z</time>
      </trkpt>
      <trkpt lat="44.06545" lon="3.0437">
        <ele>646</ele>
        <time>2012-09-06T12:46:43Z</time>
      </trkpt>
      <trkpt lat="44.06514" lon="3.04416">
        <ele>653</ele>
        <time>2012-09-06T12:47:40Z</time>
      </trkpt>
      <trkpt lat="44.06477" lon="3.04452">
        <ele>649</ele>
        <time>2012-09-06T12:48:36Z</time>
      </trkpt>
      <trkpt lat="44.06436" lon="3.04481">
        <ele>645</ele>
        <time>2012-09-06T12:49:16Z</time>
      </trkpt>
      <trkpt lat="44.06395" lon="3.04508">
        <ele>643</ele>
        <time>2012-09-06T12:50:34Z</time>
      </trkpt>
      <trkpt lat="44.06358" lon="3.04546">
        <ele>645</ele>
        <time>2012-09-06T12:51:24Z</time>
      </trkpt>
      <trkpt lat="44.0634" lon="3.04603">
        <ele>643</ele>
        <time>2012-09-06T12:52:34Z</time>
      </trkpt>
      <trkpt lat="44.06311" lon="3.04653">
        <ele>643</ele>
        <time>2012-09-06T12:53:44Z</time>
      </trkpt>
      <trkpt lat="44.06301" lon="3.04715">
        <ele>647</ele>
        <time>2012-09-06T12:54:43Z</time>
      </trkpt>
      <trkpt lat="44.0629" lon="3.04776">
        <ele>642</ele>
        <time>2012-09-06T12:56:14Z</time>
      </trkpt>
      <trkpt lat="44.06301" lon="3.04837">
        <ele>647</ele>
        <time>2012-09-06T12:58:47Z</time>
      </trkpt>
      <trkpt lat="44.0628" lon="3.04893">
        <ele>634</ele>
        <time>2012-09-06T13:01:37Z</time>
      </trkpt>
      <trkpt lat="44.06274" lon="3.04956">
        <ele>629</ele>
        <time>2012-09-06T13:03:42Z</time>
      </trkpt>
      <trkpt lat="44.06277" lon="3.05019">
        <ele>618</ele>
        <time>2012-09-06T13:05:17Z</time>
      </trkpt>
      <trkpt lat="44.06276" lon="3.05082">
        <ele>613</ele>
        <time>2012-09-06T13:06:37Z</time>
      </trkpt>
      <trkpt lat="44.06267" lon="3.05143">
        <ele>643</ele>
        <time>2012-09-06T13:10:02Z</time>
      </trkpt>
      <trkpt lat="44.06278" lon="3.05204">
        <ele>655</ele>
        <time>2012-09-06T13:12:51Z</time>
      </trkpt>
      <trkpt lat="44.06264" lon="3.05264">
        <ele>679</ele>
        <time>2012-09-06T13:15:39Z</time>
      </trkpt>
      <trkpt lat="44.06258" lon="3.05326">
        <ele>707</ele>
        <time>2012-09-06T13:18:53Z</time>
      </trkpt>
      <trkpt lat="44.06267" lon="3.05387">
        <ele>723</ele>
        <time>2012-09-06T13:22:02Z</time>
      </trkpt>
      <trkpt lat="44.06304" lon="3.05425">
        <ele>725</ele>
        <time>2012-09-06T13:27:16Z</time>
      </trkpt>
      <trkpt lat="44.06347" lon="3.05448">
        <ele>725</ele>
        <time>2012-09-06T13:27:57Z</time>
      </trkpt>
      <trkpt lat="44.06389" lon="3.05473">
        <ele>719</ele>
        <time>2012-09-06T13:28:35Z</time>
      </trkpt>
      <trkpt lat="44.06425" lon="3.05523">
        <ele>722</ele>
        <time>2012-09-06T13:29:20Z</time>
      </trkpt>
      <trkpt lat="44.0645" lon="3.0558">
        <ele>698</ele>
        <time>2012-09-06T13:30:10Z</time>
      </trkpt>
      <trkpt lat="44.06489" lon="3.05611">
        <ele>693</ele>
        <time>2012-09-06T13:31:01Z</time>
      </trkpt>
      <trkpt lat="44.06526" lon="3.05648">
        <ele>692</ele>
        <time>2012-09-06T13:31:37Z</time>
      </trkpt>
      <trkpt lat="44.06553" lon="3.057">
        <ele>694</ele>
        <time>2012-09-06T13:32:28Z</time>
      </trkpt>
      <trkpt lat="44.06597" lon="3.05713">
        <ele>712</ele>
        <time>2012-09-06T13:33:45Z</time>
      </trkpt>
      <trkpt lat="44.0664" lon="3.05733">
        <ele>727</ele>
        <time>2012-09-06T13:34:32Z</time>
      </trkpt>
      <trkpt lat="44.06682" lon="3.05707">
        <ele>719</ele>
        <time>2012-09-06T13:35:14Z</time>
      </trkpt>
      <trkpt lat="44.06725" lon="3.05688">
        <ele>718</ele>
        <time>2012-09-06T13:41:08Z</time>
      </trkpt>
      <trkpt lat="44.06754" lon="3.05737">
        <ele>708</ele>
        <time>2012-09-06T13:44:04Z</time>
      </trkpt>
      <trkpt lat="44.06801" lon="3.05724">
        <ele>704</ele>
        <time>2012-09-06T13:48:00Z</time>
      </trkpt>
      <trkpt lat="44.08321" lon="3.04637">
        <ele>704</ele>
        <time>2012-09-06T13:51:16Z</time>
      </trkpt>
      <trkpt lat="44.08682" lon="3.04377">
        <ele>704</ele>
        <time>2012-09-06T13:51:37Z</time>
      </trkpt>
      <trkpt lat="44.06771" lon="3.0574">
        <ele>698</ele>
        <time>2012-09-06T13:52:34Z</time>
      </trkpt>
      <trkpt lat="44.06801" lon="3.05787">
        <ele>723</ele>
        <time>2012-09-06T13:57:34Z</time>
      </trkpt>
      <trkpt lat="44.06844" lon="3.05803">
        <ele>720</ele>
        <time>2012-09-06T13:58:29Z</time>
      </trkpt>
      <trkpt lat="44.0689" lon="3.05804">
        <ele>730</ele>
        <time>2012-09-06T13:59:16Z</time>
      </trkpt>
      <trkpt lat="44.06938" lon="3.05798">
        <ele>729</ele>
        <time>2012-09-06T13:59:44Z</time>
      </trkpt>
      <trkpt lat="44.0698" lon="3.05823">
        <ele>729</ele>
        <time>2012-09-06T14:00:46Z</time>
      </trkpt>
      <trkpt lat="44.07024" lon="3.0584">
        <ele>737</ele>
        <time>2012-09-06T14:01:32Z</time>
      </trkpt>
      <trkpt lat="44.07068" lon="3.05831">
        <ele>735</ele>
        <time>2012-09-06T14:05:58Z</time>
      </trkpt>
      <trkpt lat="44.07114" lon="3.05831">
        <ele>724</ele>
        <time>2012-09-06T14:07:00Z</time>
      </trkpt>
      <trkpt lat="44.07157" lon="3.05808">
        <ele>724</ele>
        <time>2012-09-06T14:07:55Z</time>
      </trkpt>
      <trkpt lat="44.072" lon="3.05786">
        <ele>718</ele>
        <time>2012-09-06T14:08:41Z</time>
      </trkpt>
      <trkpt lat="44.07179" lon="3.05842">
        <ele>705</ele>
        <time>2012-09-06T14:29:06Z</time>
      </trkpt>
      <trkpt lat="44.07223" lon="3.05857">
        <ele>679</ele>
        <time>2012-09-06T14:31:31Z</time>
      </trkpt>
      <trkpt lat="44.07268" lon="3.05838">
        <ele>659</ele>
        <time>2012-09-06T14:32:41Z</time>
      </trkpt>
      <trkpt lat="44.07312" lon="3.05824">
        <ele>638</ele>
        <time>2012-09-06T14:34:18Z</time>
      </trkpt>
      <trkpt lat="44.07346" lon="3.05783">
        <ele>628</ele>
        <time>2012-09-06T14:35:05Z</time>
      </trkpt>
      <trkpt lat="44.07389" lon="3.05761">
        <ele>619</ele>
        <time>2012-09-06T14:35:46Z</time>
      </trkpt>
      <trkpt lat="44.07431" lon="3.05737">
        <ele>612</ele>
        <time>2012-09-06T14:37:06Z</time>
      </trkpt>
      <trkpt lat="44.07477" lon="3.05734">
        <ele>595</ele>
        <time>2012-09-06T14:39:01Z</time>
      </trkpt>
      <trkpt lat="44.07522" lon="3.05722">
        <ele>572</ele>
        <time>2012-09-06T14:39:45Z</time>
      </trkpt>
      <trkpt lat="44.07567" lon="3.05735">
        <ele>569</ele>
        <time>2012-09-06T14:40:38Z</time>
      </trkpt>
      <trkpt lat="44.07607" lon="3.05764">
        <ele>542</ele>
        <time>2012-09-06T14:41:34Z</time>
      </trkpt>
      <trkpt lat="44.07653" lon="3.0577">
        <ele>522</ele>
        <time>2012-09-06T14:42:41Z</time>
      </trkpt>
      <trkpt lat="44.07685" lon="3.05814">
        <ele>510</ele>
        <time>2012-09-06T14:43:48Z</time>
      </trkpt>
      <trkpt lat="44.07728" lon="3.05835">
        <ele>500</ele>
        <time>2012-09-06T14:45:15Z</time>
      </trkpt>
      <trkpt lat="44.07777" lon="3.05836">
        <ele>483</ele>
        <time>2012-09-06T14:46:33Z</time>
      </trkpt>
      <trkpt lat="44.07823" lon="3.05837">
        <ele>484</ele>
        <time>2012-09-06T14:47:21Z</time>
      </trkpt>
      <trkpt lat="44.07868" lon="3.05831">
        <ele>484</ele>
        <time>2012-09-06T14:48:02Z</time>
      </trkpt>
      <trkpt lat="44.07905" lon="3.05789">
        <ele>475</ele>
        <time>2012-09-06T14:49:16Z</time>
      </trkpt>
      <trkpt lat="44.0795" lon="3.05792">
        <ele>470</ele>
        <time>2012-09-06T14:57:16Z</time>
      </trkpt>
      <trkpt lat="44.07992" lon="3.05768">
        <ele>468</ele>
        <time>2012-09-06T14:58:01Z</time>
      </trkpt>
      <trkpt lat="44.07995" lon="3.05706">
        <ele>471</ele>
        <time>2012-09-06T14:58:55Z</time>
      </trkpt>
      <trkpt lat="44.07981" lon="3.05644">
        <ele>468</ele>
        <time>2012-09-06T14:59:42Z</time>
      </trkpt>
      <trkpt lat="44.07989" lon="3.05583">
        <ele>472</ele>
        <time>2012-09-06T15:00:22Z</time>
      </trkpt>
      <trkpt lat="44.08009" lon="3.05525">
        <ele>469</ele>
        <time>2012-09-06T15:00:59Z</time>
      </trkpt>
      <trkpt lat="44.08023" lon="3.05465">
        <ele>469</ele>
        <time>2012-09-06T15:01:40Z</time>
      </trkpt>
      <trkpt lat="44.08032" lon="3.05404">
        <ele>472</ele>
        <time>2012-09-06T15:02:51Z</time>
      </trkpt>
      <trkpt lat="44.07987" lon="3.05398">
        <ele>460</ele>
        <time>2012-09-06T15:04:40Z</time>
      </trkpt>
      <trkpt lat="44.07953" lon="3.05357">
        <ele>434</ele>
        <time>2012-09-06T15:06:41Z</time>
      </trkpt>
      <trkpt lat="44.07912" lon="3.05327">
        <ele>430</ele>
        <time>2012-09-06T15:07:41Z</time>
      </trkpt>
      <trkpt lat="44.07878" lon="3.05367">
        <ele>427</ele>
        <time>2012-09-06T15:09:25Z</time>
      </trkpt>
      <trkpt lat="44.0786" lon="3.0531">
        <ele>410</ele>
        <time>2012-09-06T15:11:38Z</time>
      </trkpt>
      <trkpt lat="44.07862" lon="3.05247">
        <ele>407</ele>
        <time>2012-09-06T15:12:22Z</time>
      </trkpt>
      <trkpt lat="44.07843" lon="3.05191">
        <ele>396</ele>
        <time>2012-09-06T15:12:59Z</time>
      </trkpt>
      <trkpt lat="44.07856" lon="3.05127">
        <ele>396</ele>
        <time>2012-09-06T15:14:12Z</time>
      </trkpt>
      <trkpt lat="44.07879" lon="3.05072">
        <ele>389</ele>
        <time>2012-09-06T15:14:53Z</time>
      </trkpt>
      <trkpt lat="44.07871" lon="3.05011">
        <ele>386</ele>
        <time>2012-09-06T15:16:00Z</time>
      </trkpt>
      <trkpt lat="44.0783" lon="3.04983">
        <ele>382</ele>
        <time>2012-09-06T15:16:36Z</time>
      </trkpt>
      <trkpt lat="44.0779" lon="3.04955">
        <ele>385</ele>
        <time>2012-09-06T15:17:18Z</time>
      </trkpt>
      <trkpt lat="44.07761" lon="3.04905">
        <ele>385</ele>
        <time>2012-09-06T15:18:01Z</time>
      </trkpt>
      <trkpt lat="44.07719" lon="3.04928">
        <ele>387</ele>
        <time>2012-09-06T15:18:46Z</time>
      </trkpt>
      <trkpt lat="44.07675" lon="3.04943">
        <ele>388</ele>
        <time>2012-09-06T15:19:27Z</time>
      </trkpt>
      <trkpt lat="44.07672" lon="3.04881">
        <ele>387</ele>
        <time>2012-09-06T15:20:28Z</time>
      </trkpt>
      <trkpt lat="44.07681" lon="3.04818">
        <ele>386</ele>
        <time>2012-09-06T15:21:20Z</time>
      </trkpt>
      <trkpt lat="44.0772" lon="3.04782">
        <ele>376</ele>
        <time>2012-09-06T15:22:04Z</time>
      </trkpt>
      <trkpt lat="44.07707" lon="3.04722">
        <ele>380</ele>
        <time>2012-09-06T15:22:33Z</time>
      </trkpt>
      <trkpt lat="44.07662" lon="3.04731">
        <ele>380</ele>
        <time>2012-09-06T15:23:22Z</time>
      </trkpt>
      <trkpt lat="44.07629" lon="3.04774">
        <ele>382</ele>
        <time>2012-09-06T15:23:57Z</time>
      </trkpt>
      <trkpt lat="44.07589" lon="3.04805">
        <ele>380</ele>
        <time>2012-09-06T15:24:29Z</time>
      </trkpt>
      <trkpt lat="44.07547" lon="3.0483">
        <ele>387</ele>
        <time>2012-09-06T15:25:02Z</time>
      </trkpt>
      <trkpt lat="44.07532" lon="3.04869">
        <ele>389</ele>
        <time>2012-09-06T15:25:40Z</time>
      </trkpt>
      <trkpt lat="44.07532" lon="3.04869">
        <ele>388</ele>
        <time>2012-09-06T15:25:43Z</time>
      </trkpt>
    </trkseg>
  </trk>
</gpx>